createdAt,value
2023-03-26T00:00:13.375Z,85.03
2023-03-26T00:05:38.936Z,84.97
2023-03-26T00:10:44.880Z,84.67
2023-03-26T00:15:50.165Z,84.67
2023-03-26T00:20:55.806Z,84.31
2023-03-26T00:26:01.557Z,84.50
2023-03-26T00:31:10.290Z,84.30
2023-03-26T00:36:17.604Z,84.40
2023-03-26T00:41:26.381Z,84.16
2023-03-26T00:46:32.997Z,84.14
2023-03-26T00:51:39.375Z,84.10
2023-03-26T00:56:45.364Z,83.90
2023-03-26T01:01:55.131Z,83.58
2023-03-26T01:07:04.854Z,83.43
2023-03-26T01:12:17.003Z,83.41
2023-03-26T01:17:23.866Z,83.30
2023-03-26T01:22:30.026Z,83.50
2023-03-26T01:27:41.244Z,83.46
2023-03-26T01:32:55.777Z,83.70
2023-03-26T01:38:18.465Z,83.70
2023-03-26T01:43:32.482Z,83.88
2023-03-26T01:48:40.433Z,84.26
2023-03-26T01:53:48.606Z,84.25
2023-03-26T01:59:08.246Z,84.17
2023-03-26T02:04:24.638Z,84.12
2023-03-26T02:09:35.858Z,84.26
2023-03-26T02:14:42.436Z,84.40
2023-03-26T02:19:48.116Z,84.21
2023-03-26T02:24:53.587Z,84.13
2023-03-26T02:29:58.927Z,84.04
2023-03-26T02:35:06.877Z,84.12
2023-03-26T02:40:12.766Z,84.17
2023-03-26T02:45:18.440Z,84.56
2023-03-26T02:50:24.156Z,84.95
2023-03-26T02:55:29.813Z,85.59
2023-03-26T03:00:35.647Z,85.65
2023-03-26T03:05:43.306Z,85.51
2023-03-26T03:10:59.117Z,85.63
2023-03-26T03:16:05.775Z,85.69
2023-03-26T03:21:11.277Z,85.68
2023-03-26T03:26:21.720Z,85.80
2023-03-26T03:31:28.471Z,85.92
2023-03-26T03:36:33.942Z,85.67
2023-03-26T03:41:39.288Z,85.69
2023-03-26T03:46:44.684Z,85.47
2023-03-26T03:51:50.278Z,85.41
2023-03-26T03:56:56.454Z,85.41
2023-03-26T04:02:02.309Z,85.42
2023-03-26T04:07:07.643Z,85.38
2023-03-26T04:12:13.054Z,85.61
2023-03-26T04:17:21.965Z,85.73
2023-03-26T04:22:34.635Z,85.95
2023-03-26T04:27:43.364Z,86.07
2023-03-26T04:32:49.181Z,86.34
2023-03-26T04:37:54.952Z,86.39
2023-03-26T04:43:02.383Z,86.58
2023-03-26T04:48:08.296Z,86.76
2023-03-26T04:53:16.625Z,86.75
2023-03-26T04:58:21.965Z,86.67
2023-03-26T05:03:31.364Z,86.43
2023-03-26T05:08:36.678Z,86.50
2023-03-26T05:13:42.926Z,86.51
2023-03-26T05:18:48.482Z,86.42
2023-03-26T05:23:54.001Z,86.45
2023-03-26T05:28:59.798Z,86.34
2023-03-26T05:34:06.745Z,86.42
2023-03-26T05:39:14.259Z,86.44
2023-03-26T05:44:19.878Z,86.46
2023-03-26T05:49:25.525Z,86.65
2023-03-26T05:54:31.363Z,86.80
2023-03-26T05:59:36.823Z,86.63
2023-03-26T06:04:42.876Z,85.59
2023-03-26T06:09:48.779Z,84.80
2023-03-26T06:14:54.224Z,84.65
2023-03-26T06:19:59.551Z,84.81
2023-03-26T06:25:06.314Z,84.68
2023-03-26T06:30:13.818Z,84.89
2023-03-26T06:35:19.438Z,84.77
2023-03-26T06:40:25.534Z,85.07
2023-03-26T06:45:32.327Z,85.25
2023-03-26T06:50:37.663Z,85.15
2023-03-26T06:55:43.205Z,85.07
2023-03-26T07:00:48.951Z,84.95
2023-03-26T07:05:54.696Z,84.64
2023-03-26T07:11:00.256Z,84.05
2023-03-26T07:16:07.319Z,84.03
2023-03-26T07:21:14.903Z,83.11
2023-03-26T07:26:31.121Z,81.65
2023-03-26T07:31:42.639Z,81.87
2023-03-26T07:36:57.232Z,81.37
2023-03-26T07:42:11.491Z,81.60
2023-03-26T07:47:27.198Z,80.72
2023-03-26T07:52:33.875Z,79.71
2023-03-26T07:57:47.531Z,79.89
2023-03-26T08:03:13.923Z,79.37
2023-03-26T08:08:27.262Z,79.39
2023-03-26T08:13:42.305Z,79.51
2023-03-26T08:18:56.318Z,78.65
2023-03-26T08:24:07.817Z,79.40
2023-03-26T08:29:23.064Z,79.95
2023-03-26T08:34:28.572Z,80.00
2023-03-26T08:39:34.186Z,79.15
2023-03-26T08:45:26.410Z,78.75
2023-03-26T08:50:56.615Z,78.23
2023-03-26T08:56:12.039Z,78.70
2023-03-26T09:01:41.161Z,78.70
2023-03-26T09:07:10.001Z,78.57
2023-03-26T09:12:46.606Z,78.65
2023-03-26T09:18:25.262Z,79.45
2023-03-26T09:23:56.110Z,79.93
2023-03-26T09:29:34.722Z,80.15
2023-03-26T09:34:55.089Z,80.95
2023-03-26T09:40:15.420Z,81.23
2023-03-26T09:45:38.250Z,81.70
2023-03-26T09:50:56.343Z,81.40
2023-03-26T09:56:14.371Z,82.02
2023-03-26T10:01:29.231Z,81.98
2023-03-26T10:06:48.999Z,82.13
2023-03-26T10:12:08.879Z,82.33
2023-03-26T10:17:32.041Z,83.10
2023-03-26T10:22:51.607Z,82.93
2023-03-26T10:28:09.816Z,83.01
2023-03-26T10:33:25.219Z,83.34
2023-03-26T10:38:46.756Z,83.27
2023-03-26T10:44:15.788Z,82.78
2023-03-26T10:49:39.762Z,81.82
2023-03-26T10:54:55.400Z,81.94
2023-03-26T11:00:12.807Z,81.76
2023-03-26T11:05:39.552Z,82.10
2023-03-26T11:10:56.416Z,82.29
2023-03-26T11:16:06.110Z,82.20
2023-03-26T11:21:20.677Z,81.57
2023-03-26T11:26:32.843Z,81.42
2023-03-26T11:31:48.503Z,79.91
2023-03-26T11:36:56.519Z,79.54
2023-03-26T11:42:07.374Z,79.07
2023-03-26T11:47:16.265Z,77.72
2023-03-26T11:52:22.348Z,77.77
2023-03-26T11:57:33.434Z,76.67
2023-03-26T12:02:42.181Z,76.53
2023-03-26T12:07:52.702Z,76.43
2023-03-26T12:13:01.594Z,76.32
2023-03-26T12:18:25.910Z,74.26
2023-03-26T12:23:43.576Z,73.46
2023-03-26T12:28:51.294Z,72.33
2023-03-26T12:34:14.047Z,71.16
2023-03-26T12:40:08.087Z,70.19
2023-03-26T12:44:59.951Z,69.81
2023-03-26T12:50:09.659Z,70.31
2023-03-26T12:55:38.105Z,68.55
2023-03-26T13:00:55.599Z,69.46
2023-03-26T13:06:20.506Z,69.20
2023-03-26T13:11:34.336Z,68.83
2023-03-26T13:16:46.691Z,69.37
2023-03-26T13:22:02.767Z,68.62
2023-03-26T13:27:22.280Z,67.64
2023-03-26T13:32:37.876Z,67.54
2023-03-26T13:37:51.403Z,67.20
2023-03-26T13:43:14.481Z,66.82
2023-03-26T13:48:24.176Z,67.12
2023-03-26T13:53:35.064Z,67.04
2023-03-26T13:58:49.031Z,66.28
2023-03-26T14:04:04.361Z,65.63
2023-03-26T14:09:17.847Z,66.03
2023-03-26T14:14:31.582Z,66.21
2023-03-26T14:20:10.975Z,64.86
2023-03-26T14:25:25.867Z,65.09
2023-03-26T14:31:08.824Z,64.82
2023-03-26T14:36:29.003Z,65.48
2023-03-26T14:41:43.824Z,65.34
2023-03-26T14:47:02.754Z,65.37
2023-03-26T14:52:14.856Z,65.24
2023-03-26T14:57:38.546Z,65.55
2023-03-26T15:03:34.825Z,65.77
2023-03-26T15:09:11.456Z,65.49
2023-03-26T15:14:43.824Z,65.72
2023-03-26T15:20:10.646Z,64.65
2023-03-26T15:25:41.063Z,64.16
2023-03-26T15:31:11.260Z,63.75
2023-03-26T15:36:37.179Z,64.04
2023-03-26T15:41:49.622Z,64.45
2023-03-26T15:47:26.353Z,64.15
2023-03-26T15:52:38.263Z,64.38
2023-03-26T15:57:53.122Z,64.59
2023-03-26T16:03:34.263Z,64.45
2023-03-26T16:08:53.239Z,64.50
2023-03-26T16:14:17.445Z,64.72
2023-03-26T16:19:58.989Z,64.69
2023-03-26T16:25:29.603Z,64.53
2023-03-26T16:30:37.022Z,64.66
2023-03-26T16:35:59.710Z,64.85
2023-03-26T16:41:14.834Z,64.84
2023-03-26T16:46:34.529Z,64.90
2023-03-26T16:51:57.007Z,65.39
2023-03-26T16:57:15.531Z,65.28
2023-03-26T17:02:29.084Z,65.40
2023-03-26T17:07:38.866Z,65.89
2023-03-26T17:12:51.362Z,65.57
2023-03-26T17:18:32.428Z,65.90
2023-03-26T17:24:00.193Z,65.67
2023-03-26T17:29:20.331Z,66.30
2023-03-26T17:34:46.630Z,66.50
2023-03-26T17:40:37.152Z,66.89
2023-03-26T17:45:43.897Z,67.07
2023-03-26T17:50:54.394Z,67.16
2023-03-26T17:56:05.531Z,67.72
2023-03-26T18:01:22.276Z,67.92
2023-03-26T18:06:44.975Z,68.07
2023-03-26T18:12:11.633Z,68.22
2023-03-26T18:17:17.398Z,68.34
2023-03-26T18:22:26.587Z,68.57
2023-03-26T18:27:40.555Z,69.43
2023-03-26T18:33:00.120Z,69.61
2023-03-26T18:38:06.111Z,69.66
2023-03-26T18:43:32.276Z,69.63
2023-03-26T18:48:40.948Z,69.24
2023-03-26T18:53:50.738Z,68.73
2023-03-26T18:58:58.911Z,68.53
2023-03-26T19:04:07.041Z,68.42
2023-03-26T19:09:30.325Z,68.51
2023-03-26T19:14:53.537Z,68.26
2023-03-26T19:19:59.208Z,68.45
2023-03-26T19:25:05.852Z,68.38
2023-03-26T19:30:20.110Z,68.30
2023-03-26T19:35:25.515Z,68.60
2023-03-26T19:40:34.974Z,68.47
2023-03-26T19:45:59.861Z,68.59
2023-03-26T19:51:19.501Z,68.38
2023-03-26T19:56:25.581Z,68.29
2023-03-26T20:01:32.187Z,68.07
2023-03-26T20:06:43.777Z,68.27
2023-03-26T20:11:52.622Z,68.21
2023-03-26T20:16:58.115Z,68.21
2023-03-26T20:22:05.389Z,68.40
2023-03-26T20:27:13.796Z,68.36
2023-03-26T20:32:26.495Z,68.37
2023-03-26T20:37:32.585Z,68.45
2023-03-26T20:42:38.441Z,68.63
2023-03-26T20:47:44.042Z,68.92
2023-03-26T20:52:50.458Z,69.12
2023-03-26T20:57:55.867Z,69.08
2023-03-26T21:03:02.000Z,69.10
2023-03-26T21:08:12.912Z,69.00
2023-03-26T21:13:39.085Z,68.82
2023-03-26T21:18:46.015Z,68.96
2023-03-26T21:24:00.253Z,68.96
2023-03-26T21:29:06.311Z,68.46
2023-03-26T21:34:13.387Z,68.79
2023-03-26T21:39:20.291Z,68.76
2023-03-26T21:44:27.229Z,68.75
2023-03-26T21:49:34.884Z,68.97
2023-03-26T21:54:43.014Z,68.98
2023-03-26T21:59:56.695Z,69.11
2023-03-26T22:05:06.142Z,69.05
2023-03-26T22:10:11.794Z,69.45
2023-03-26T22:15:18.264Z,69.15
2023-03-26T22:20:25.159Z,69.24
2023-03-26T22:25:51.043Z,69.50
2023-03-26T22:31:16.844Z,69.58
2023-03-26T22:36:42.755Z,69.62
2023-03-26T22:42:08.471Z,69.62
2023-03-26T22:47:34.177Z,70.18
2023-03-26T22:53:00.290Z,70.39
2023-03-26T22:58:26.055Z,70.31
2023-03-26T23:03:52.293Z,70.50
2023-03-26T23:09:18.038Z,70.56
2023-03-26T23:14:44.172Z,70.78
2023-03-26T23:20:09.817Z,70.95
2023-03-26T23:25:35.556Z,71.02
2023-03-26T23:31:05.441Z,71.42
2023-03-26T23:36:32.911Z,71.21
2023-03-26T23:41:58.850Z,71.72
2023-03-26T23:47:24.626Z,71.76
2023-03-26T23:52:51.856Z,71.90
2023-03-26T23:58:17.511Z,71.93
